Pagrindinis puslapis
METAR-TAF:

METAR-TAF

Oro uostai :

Gambell, Aliaska, Jungtinės Amerikos Valstijos

platuma: 63-46N, ilguma: 171-44W, Aukštis: 8 m

Dabartinis oras

Ataskaita buvo paskelbta 2 valandos ir 43 minutes, ne 07:56 UTC
Vėjas 16 kt iš Pietų/Pietvakarių
Temperatūra -2°C
Drėgmė 93%
Slėgis 1007 hPa
Matomumas: 14.5 km
Su prošvaistėmis ne aukštis 4700 ft

METAR: PAGM 310756Z AUTO 20016KT 9SM BKN047 M02/M03 A2975 RMK AO2 UPB21E26SNE21B26E48 SLP079 P0000 T10221033 FZRANO

Laikas: 02:39 (10:39 UTC)


TAF: trūkstamas

Orai ataskaitas ir orų prognozės (METAR, TAF).

turimą stotys yra geltonos ir raudonos taškus žemėlapyje.

Perkelti pele per norėdami pamatyti stoties vardą.

Tada spustelėkite, norėdami matyti oro stebėjimo ir prognozės.

Norėdami pakeisti žemėlapį: spustelėkite ant žalios mygtukų su juodo kryžiaus žemyn,; žalią mygtuką su brūkšneliu, jei norite nutolinti; arba žalių rodyklių gretimoms žemėlapius.


METAR-TAF: